Farm — LBHF — position and weather

sailwx.info

Track history (hours):
 
Tides and Currents Weather Stations Pressure Air Temp Water Temp Dewpoint Dewpoint Depression Visibility Wind Speed Wind Dir Waves Ship Positions

Farm

Last reported at 2017-Aug-17 11:30 UTC. Time now 2017-Aug-17 11:47 UTC.
Position N 68°42' E 015°25'.

Length 46 m.

Type: Law enforcement. MMSI: 257069200.

Date/timePositionNaut miles runAvg speedWind from/ knotsBaromVisibWave heightAir tempDewpointWater temp
2017-Aug-17 11:30N 68°42' E 015°25'0 0.0
2017-Aug-17 11:00N 68°42' E 015°25'0 0.0
2017-Aug-17 10:30N 68°42' E 015°25'0 0.0
2017-Aug-17 10:00N 68°42' E 015°25'0 0.0
2017-Aug-17 09:30N 68°42' E 015°25'0 0.0
2017-Aug-17 09:00N 68°42' E 015°25'0 0.0
2017-Aug-17 08:30N 68°42' E 015°25'0 0.0
2017-Aug-17 08:00N 68°42' E 015°25'0 0.0
2017-Aug-17 07:30N 68°42' E 015°25'0 0.0
2017-Aug-17 07:00N 68°42' E 015°25'0 0.0
2017-Aug-17 06:30N 68°42' E 015°25'0 0.0
2017-Aug-17 06:00N 68°42' E 015°25'0 0.0
2017-Aug-17 05:30N 68°42' E 015°25'0 0.4
2017-Aug-17 05:00N 68°42' E 015°26'2 4.1
2017-Aug-17 04:30N 68°44' E 015°25'3 5.6
2017-Aug-17 04:00N 68°47' E 015°26'3 6.0
2017-Aug-17 03:30N 68°50' E 015°26'4 8.0
2017-Aug-17 03:00N 68°54' E 015°23'4 7.7
2017-Aug-17 02:30N 68°58' E 015°23'5 9.8
2017-Aug-17 02:00N 69°03' E 015°26'510.1
2017-Aug-17 01:30N 69°08' E 015°30'5 9.8
2017-Aug-17 01:00N 69°12' E 015°34'5 9.5
2017-Aug-17 00:30N 69°17' E 015°39'5 9.2
2017-Aug-17 00:00N 69°21' E 015°43'4 7.8
2017-Aug-16 23:31N 69°23' E 015°52'4 8.6
2017-Aug-16 23:00N 69°25' E 016°04'4 8.7
2017-Aug-16 22:30N 69°27' E 016°15'4 7.9
2017-Aug-16 22:00N 69°28' E 016°25'5 9.1
2017-Aug-16 21:30N 69°30' E 016°37'510.4
2017-Aug-16 21:00N 69°32' E 016°51'5 9.8
2017-Aug-16 20:30N 69°34' E 017°03'510.5
2017-Aug-16 20:00N 69°37' E 017°17'510.3
2017-Aug-16 19:30N 69°39' E 017°31'5 9.3
2017-Aug-16 19:00N 69°39' E 017°44'5 9.2
2017-Aug-16 18:30N 69°36' E 017°54'510.4
2017-Aug-16 18:00N 69°32' E 018°03'5 9.5
2017-Aug-16 17:30N 69°31' E 018°16'510.1
2017-Aug-16 17:01N 69°32' E 018°30'5 9.3
2017-Aug-16 16:30N 69°33' E 018°42'4 7.0
2017-Aug-16 16:00N 69°35' E 018°51'4 8.0
2017-Aug-16 15:30N 69°38' E 018°57'3 5.1
2017-Aug-16 15:00N 69°41' E 018°60'1 2.6
2017-Aug-16 14:30N 69°42' E 019°02'3 5.1
2017-Aug-16 14:00N 69°44' E 019°03'2 4.7
2017-Aug-16 13:31N 69°46' E 019°07'2 3.5
2017-Aug-16 13:00N 69°47' E 019°11'1 1.2
2017-Aug-16 12:30N 69°47' E 019°13'0 0.9
2017-Aug-16 12:00N 69°47' E 019°13'1 1.5
2017-Aug-16 11:29N 69°47' E 019°11'1 1.1
2017-Aug-16 11:00N 69°46' E 019°10'1 1.3
2017-Aug-16 10:30N 69°45' E 019°10'0 1.0
2017-Aug-16 10:00N 69°45' E 019°09'2 4.6
2017-Aug-16 09:30N 69°43' E 019°04'3 6.3
2017-Aug-16 09:00N 69°41' E 018°60'0 0.1
2017-Aug-16 08:28N 69°41' E 018°60'0 0.0
2017-Aug-16 07:58N 69°41' E 018°60'0 0.0
2017-Aug-16 07:28N 69°41' E 018°60'0 0.0
2017-Aug-16 06:58N 69°41' E 018°60'0 0.0
2017-Aug-16 06:28N 69°41' E 018°60'0 0.0
2017-Aug-16 05:58N 69°41' E 018°60'0 0.0
2017-Aug-16 05:28N 69°41' E 018°60'0 0.0
2017-Aug-16 04:58N 69°41' E 018°60'0 0.0
2017-Aug-16 04:28N 69°41' E 018°60'0 0.0
2017-Aug-16 03:58N 69°41' E 018°60'0 0.0
2017-Aug-16 03:28N 69°41' E 018°60'0 0.0
2017-Aug-16 02:58N 69°41' E 018°60'0 0.0
2017-Aug-16 02:28N 69°41' E 018°60'0 0.0
2017-Aug-16 01:58N 69°41' E 018°60'0 0.0
2017-Aug-16 01:28N 69°41' E 018°60'0 0.0
2017-Aug-16 00:58N 69°41' E 018°60'0 0.0
2017-Aug-16 00:28N 69°41' E 018°60'0 0.0
2017-Aug-15 23:58N 69°41' E 018°60'0 0.0
2017-Aug-15 23:28N 69°41' E 018°60'0 0.0
2017-Aug-15 22:58N 69°41' E 018°60'0 0.0
2017-Aug-15 22:28N 69°41' E 018°60'0 0.0
2017-Aug-15 21:58N 69°41' E 018°60'0 0.0
2017-Aug-15 21:28N 69°41' E 018°60'0 0.0
2017-Aug-15 20:58N 69°41' E 018°60'0 0.0
2017-Aug-15 20:28N 69°41' E 018°60'0 0.0
2017-Aug-15 19:58N 69°41' E 018°60'0 0.0
2017-Aug-15 19:28N 69°41' E 018°60'0 0.0
2017-Aug-15 18:58N 69°41' E 018°60'0 0.0
2017-Aug-15 18:28N 69°41' E 018°60'0 0.0
2017-Aug-15 17:58N 69°41' E 018°60'0 0.0
2017-Aug-15 17:28N 69°41' E 018°60'0 0.0
2017-Aug-15 16:58N 69°41' E 018°60'0 0.0
2017-Aug-15 16:28N 69°41' E 018°60'0 0.0
2017-Aug-15 15:58N 69°41' E 018°60'0 0.0
2017-Aug-15 15:28N 69°41' E 018°60'0 0.0
2017-Aug-15 14:58N 69°41' E 018°60'0 0.0
2017-Aug-15 14:22N 69°41' E 018°60'1 1.4
2017-Aug-15 14:00N 69°41' E 019°01'0 0.3
2017-Aug-15 13:30N 69°41' E 019°02'0 0.0
2017-Aug-15 13:00N 69°41' E 019°02'1 1.3
2017-Aug-15 12:28N 69°41' E 018°60'0 0.0
2017-Aug-15 11:58N 69°41' E 018°60'0 0.0
2017-Aug-15 11:28N 69°41' E 018°60'0 0.0
2017-Aug-15 10:58N 69°41' E 018°60'0 0.0
2017-Aug-15 10:28N 69°41' E 018°60'0 0.0
2017-Aug-15 09:58N 69°41' E 018°60'0 0.0
2017-Aug-15 09:28N 69°41' E 018°60'0 0.0
2017-Aug-15 08:58N 69°41' E 018°60'0 0.0
2017-Aug-15 08:28N 69°41' E 018°60'0 0.0
2017-Aug-15 08:00N 69°41' E 018°60'2 4.6
2017-Aug-15 07:30N 69°43' E 019°03'5 9.6
2017-Aug-15 07:00N 69°47' E 019°11'5 9.9
2017-Aug-15 06:30N 69°48' E 019°24'2 3.1
2017-Aug-15 05:59N 69°49' E 019°28'0 0.0
2017-Aug-15 05:26N 69°49' E 019°28'0 0.0
2017-Aug-15 04:59N 69°49' E 019°28'0 0.0
2017-Aug-15 04:29N 69°49' E 019°27'0 0.1
2017-Aug-15 03:59N 69°49' E 019°28'0 0.1
2017-Aug-15 03:29N 69°49' E 019°27'0 0.0
2017-Aug-15 02:59N 69°49' E 019°28'0 0.0
2017-Aug-15 02:29N 69°49' E 019°28'0 0.1
2017-Aug-15 01:59N 69°49' E 019°28'0 0.0
2017-Aug-15 01:29N 69°49' E 019°28'0 0.0
2017-Aug-15 00:59N 69°49' E 019°28'0 0.0
2017-Aug-15 00:29N 69°49' E 019°28'0 0.0
2017-Aug-14 23:59N 69°49' E 019°28'0 0.0
2017-Aug-14 23:29N 69°49' E 019°28'0 0.0
2017-Aug-14 22:59N 69°49' E 019°28'0 0.0
2017-Aug-14 22:29N 69°49' E 019°28'0 0.0
2017-Aug-14 21:59N 69°49' E 019°28'0 0.0
2017-Aug-14 21:29N 69°49' E 019°28'0 0.0
2017-Aug-14 21:00N 69°49' E 019°28'2 3.5
2017-Aug-14 20:30N 69°49' E 019°22'4 9.2
2017-Aug-14 20:01N 69°53' E 019°28'5 9.0
2017-Aug-14 19:30N 69°57' E 019°36'4 8.4
2017-Aug-14 18:59N 70°01' E 019°41'510.2
2017-Aug-14 18:30N 70°04' E 019°31'510.8
2017-Aug-14 18:00N 70°06' E 019°16'  
2017-Aug-11 04:08N 70°19' E 021°27'1 6.3
2017-Aug-11 04:00N 70°20' E 021°29'3 6.7
2017-Aug-11 03:30N 70°22' E 021°36'3 6.1
2017-Aug-11 03:00N 70°24' E 021°44'3 6.2
2017-Aug-11 02:30N 70°22' E 021°52'3 6.6
2017-Aug-11 02:00N 70°21' E 022°01'3 6.6
2017-Aug-11 01:30N 70°19' E 022°09'3 6.5
2017-Aug-11 01:00N 70°18' E 022°18'3 6.8
2017-Aug-11 00:30N 70°16' E 022°27'4 7.5
2017-Aug-11 00:00N 70°15' E 022°37'4 7.6
2017-Aug-10 23:30N 70°14' E 022°48'4 7.3
2017-Aug-10 22:59N 70°13' E 022°59'3 6.6
2017-Aug-10 22:30N 70°14' E 023°08'3 6.4
2017-Aug-10 22:00N 70°16' E 023°16'4 7.0
2017-Aug-10 21:30N 70°19' E 023°23'2 4.8
2017-Aug-10 20:59N 70°21' E 023°27'3 7.0
2017-Aug-10 20:30N 70°24' E 023°34'4 7.3
2017-Aug-10 20:00N 70°26' E 023°40'3 6.6
2017-Aug-10 19:30N 70°29' E 023°46'2 4.5
2017-Aug-10 19:00N 70°30' E 023°52'511.1
2017-Aug-10 18:30N 70°34' E 024°05'5 9.9
2017-Aug-10 18:00N 70°38' E 024°09'510.5
2017-Aug-10 17:30N 70°44' E 024°09'510.2
2017-Aug-10 17:00N 70°49' E 024°09'5 9.9
2017-Aug-10 16:30N 70°53' E 024°19'5 9.4
2017-Aug-10 16:00N 70°57' E 024°24'5 9.7
2017-Aug-10 15:30N 71°01' E 024°30'4 8.3
2017-Aug-10 15:00N 71°01' E 024°43'2 3.5
2017-Aug-10 14:29N 71°00' E 024°48'1010.0
2017-Aug-10 13:30N 70°59' E 025°18'4 8.6
2017-Aug-10 12:59N 70°57' E 025°29'510.1
2017-Aug-10 12:30N 70°56' E 025°44'611.8
2017-Aug-10 12:00N 70°55' E 026°02'1 1.7
2017-Aug-10 11:30N 70°56' E 025°60'1 1.2
2017-Aug-10 11:00N 70°56' E 025°59'3 5.4
2017-Aug-10 10:30N 70°59' E 025°57'0 0.7
2017-Aug-10 09:58N 70°59' E 025°58'0 0.0
2017-Aug-10 09:28N 70°59' E 025°58'0 0.0
2017-Aug-10 08:58N 70°59' E 025°58'0 0.0
2017-Aug-10 08:28N 70°59' E 025°58'0 0.0
2017-Aug-10 07:58N 70°59' E 025°58'0 0.0
2017-Aug-10 07:28N 70°59' E 025°58'0 0.0
2017-Aug-10 06:58N 70°59' E 025°58'0 0.0
2017-Aug-10 06:28N 70°59' E 025°58'0 0.0
2017-Aug-10 05:58N 70°59' E 025°58'0 0.0
2017-Aug-10 05:28N 70°59' E 025°58'0 0.0
2017-Aug-10 04:58N 70°59' E 025°58'0 0.0
2017-Aug-10 04:28N 70°59' E 025°58'0 0.0
2017-Aug-10 03:58N 70°59' E 025°58'0 0.0
2017-Aug-10 03:28N 70°59' E 025°58'0 0.0
2017-Aug-10 02:58N 70°59' E 025°58'0 0.0
2017-Aug-10 02:28N 70°59' E 025°58'0 0.0
2017-Aug-10 01:58N 70°59' E 025°58'0 0.0
2017-Aug-10 01:28N 70°59' E 025°58'0 0.0
2017-Aug-10 00:58N 70°59' E 025°58'0 0.0
2017-Aug-10 00:28N 70°59' E 025°58'0 0.0
2017-Aug-09 23:58N 70°59' E 025°58'0 0.0
2017-Aug-09 23:28N 70°59' E 025°58'0 0.0
2017-Aug-09 22:58N 70°59' E 025°58'0 0.0
2017-Aug-09 22:28N 70°59' E 025°58'0 0.0
2017-Aug-09 21:58N 70°59' E 025°58'0 0.0
2017-Aug-09 21:30N 70°59' E 025°58'3 6.0
2017-Aug-09 21:00N 70°59' E 026°07'510.7
2017-Aug-09 20:30N 71°04' E 026°16'612.2
2017-Aug-09 20:00N 71°08' E 026°05'612.8
2017-Aug-09 19:30N 71°11' E 025°47'612.0
2017-Aug-09 19:00N 71°10' E 025°29'611.9
2017-Aug-09 18:30N 71°05' E 025°41'1 2.2
2017-Aug-09 18:00N 71°05' E 025°44'0 0.0
2017-Aug-09 17:30N 71°05' E 025°44'0 0.0
2017-Aug-09 17:00N 71°05' E 025°44'0 0.0
2017-Aug-09 16:30N 71°05' E 025°44'0 0.0
2017-Aug-09 16:00N 71°05' E 025°44'0 0.0
2017-Aug-09 15:30N 71°05' E 025°44'0 0.0
2017-Aug-09 15:00N 71°05' E 025°44'0 0.0
2017-Aug-09 14:30N 71°05' E 025°44'0 0.3
2017-Aug-09 14:00N 71°05' E 025°43'0 0.2
2017-Aug-09 13:30N 71°04' E 025°44'0 0.0
2017-Aug-09 13:00N 71°04' E 025°44'0 0.0
2017-Aug-09 12:30N 71°04' E 025°44'0 0.0
2017-Aug-09 12:00N 71°04' E 025°44'0 0.1
2017-Aug-09 11:30N 71°05' E 025°43'1 1.1
2017-Aug-09 11:00N 71°05' E 025°42'2 3.5
2017-Aug-09 10:30N 71°06' E 025°40'0 0.0
2017-Aug-09 10:00N 71°06' E 025°40'0 0.0
2017-Aug-09 09:30N 71°06' E 025°40'0 0.0
2017-Aug-09 09:00N 71°06' E 025°40'0 0.0
2017-Aug-09 08:30N 71°06' E 025°40'1 2.6
2017-Aug-09 08:00N 71°05' E 025°42'1 2.0
2017-Aug-09 07:30N 71°05' E 025°43'1 1.3
2017-Aug-09 07:00N 71°05' E 025°42'6 0.3
2017-Aug-08 06:40N 71°07' E 025°24'1 3.1
2017-Aug-08 06:30N 71°07' E 025°25'0 0.0
2017-Aug-08 05:59N 71°07' E 025°25'0 0.0
2017-Aug-08 05:29N 71°07' E 025°25'0 0.1
2017-Aug-08 04:59N 71°07' E 025°25'0 0.0
2017-Aug-08 04:29N 71°07' E 025°25'0 0.0
2017-Aug-08 03:59N 71°07' E 025°25'0 0.0
2017-Aug-08 03:29N 71°07' E 025°25'0 0.0
2017-Aug-08 02:59N 71°07' E 025°25'0 0.0
2017-Aug-08 02:29N 71°07' E 025°25'0 0.1
2017-Aug-08 01:59N 71°07' E 025°25'0 0.1
2017-Aug-08 01:29N 71°07' E 025°25'0 0.0
2017-Aug-08 00:59N 71°07' E 025°25'0 0.0
2017-Aug-08 00:29N 71°07' E 025°25'0 0.0
2017-Aug-07 23:59N 71°07' E 025°25'0 0.1
2017-Aug-07 23:29N 71°07' E 025°25'0 0.0
2017-Aug-07 22:59N 71°07' E 025°25'0 0.0
2017-Aug-07 22:29N 71°07' E 025°25'0 0.0
2017-Aug-07 21:59N 71°07' E 025°25'0 0.0
2017-Aug-07 21:29N 71°07' E 025°25'0 0.0
2017-Aug-07 20:59N 71°07' E 025°25'0 0.0
2017-Aug-07 20:29N 71°07' E 025°25'21 6.7
2017-Aug-07 17:19N 71°07' E 024°20'1 2.6
2017-Aug-07 17:00N 71°07' E 024°18'0 0.3
2017-Aug-07 16:30N 71°07' E 024°19'0 0.3
2017-Aug-07 16:00N 71°07' E 024°19'0 0.8
2017-Aug-07 15:30N 71°08' E 024°20'3 6.8
2017-Aug-07 15:00N 71°08' E 024°09'611.4
2017-Aug-07 14:30N 71°05' E 023°53'611.5
2017-Aug-07 14:00N 71°01' E 023°42'611.3
2017-Aug-07 13:30N 70°55' E 023°38'510.7
2017-Aug-07 13:00N 70°50' E 023°36'510.9
2017-Aug-07 12:30N 70°45' E 023°34'510.0
2017-Aug-07 12:00N 70°40' E 023°37'  
Track history (hours):
 
Tides and Currents Weather Stations Pressure Air Temp Water Temp Dewpoint Dewpoint Depression Visibility Wind Speed Wind Dir Waves Ship Positions

Farm

Last reported at 2017-Aug-17 11:30 UTC. Time now 2017-Aug-17 11:47 UTC.
Position N 68°42' E 015°25'.

Length 46 m.

Type: Law enforcement. MMSI: 257069200.

Date/timePositionNaut miles runAvg speedWind from/ knotsBaromVisibWave heightAir tempDewpointWater temp
2017-Aug-17 11:30N 68°42' E 015°25'0 0.0
2017-Aug-17 11:00N 68°42' E 015°25'0 0.0
2017-Aug-17 10:30N 68°42' E 015°25'0 0.0
2017-Aug-17 10:00N 68°42' E 015°25'0 0.0
2017-Aug-17 09:30N 68°42' E 015°25'0 0.0
2017-Aug-17 09:00N 68°42' E 015°25'0 0.0
2017-Aug-17 08:30N 68°42' E 015°25'0 0.0
2017-Aug-17 08:00N 68°42' E 015°25'0 0.0
2017-Aug-17 07:30N 68°42' E 015°25'0 0.0
2017-Aug-17 07:00N 68°42' E 015°25'0 0.0
2017-Aug-17 06:30N 68°42' E 015°25'0 0.0
2017-Aug-17 06:00N 68°42' E 015°25'0 0.0
2017-Aug-17 05:30N 68°42' E 015°25'0 0.4
2017-Aug-17 05:00N 68°42' E 015°26'2 4.1
2017-Aug-17 04:30N 68°44' E 015°25'3 5.6
2017-Aug-17 04:00N 68°47' E 015°26'3 6.0
2017-Aug-17 03:30N 68°50' E 015°26'4 8.0
2017-Aug-17 03:00N 68°54' E 015°23'4 7.7
2017-Aug-17 02:30N 68°58' E 015°23'5 9.8
2017-Aug-17 02:00N 69°03' E 015°26'510.1
2017-Aug-17 01:30N 69°08' E 015°30'5 9.8
2017-Aug-17 01:00N 69°12' E 015°34'5 9.5
2017-Aug-17 00:30N 69°17' E 015°39'5 9.2
2017-Aug-17 00:00N 69°21' E 015°43'4 7.8
2017-Aug-16 23:31N 69°23' E 015°52'4 8.6
2017-Aug-16 23:00N 69°25' E 016°04'4 8.7
2017-Aug-16 22:30N 69°27' E 016°15'4 7.9
2017-Aug-16 22:00N 69°28' E 016°25'5 9.1
2017-Aug-16 21:30N 69°30' E 016°37'510.4
2017-Aug-16 21:00N 69°32' E 016°51'5 9.8
2017-Aug-16 20:30N 69°34' E 017°03'510.5
2017-Aug-16 20:00N 69°37' E 017°17'510.3
2017-Aug-16 19:30N 69°39' E 017°31'5 9.3
2017-Aug-16 19:00N 69°39' E 017°44'5 9.2
2017-Aug-16 18:30N 69°36' E 017°54'510.4
2017-Aug-16 18:00N 69°32' E 018°03'5 9.5
2017-Aug-16 17:30N 69°31' E 018°16'510.1
2017-Aug-16 17:01N 69°32' E 018°30'5 9.3
2017-Aug-16 16:30N 69°33' E 018°42'4 7.0
2017-Aug-16 16:00N 69°35' E 018°51'4 8.0
2017-Aug-16 15:30N 69°38' E 018°57'3 5.1
2017-Aug-16 15:00N 69°41' E 018°60'1 2.6
2017-Aug-16 14:30N 69°42' E 019°02'3 5.1
2017-Aug-16 14:00N 69°44' E 019°03'2 4.7
2017-Aug-16 13:31N 69°46' E 019°07'2 3.5
2017-Aug-16 13:00N 69°47' E 019°11'1 1.2
2017-Aug-16 12:30N 69°47' E 019°13'0 0.9
2017-Aug-16 12:00N 69°47' E 019°13'1 1.5
2017-Aug-16 11:29N 69°47' E 019°11'1 1.1
2017-Aug-16 11:00N 69°46' E 019°10'1 1.3
2017-Aug-16 10:30N 69°45' E 019°10'0 1.0
2017-Aug-16 10:00N 69°45' E 019°09'2 4.6
2017-Aug-16 09:30N 69°43' E 019°04'3 6.3
2017-Aug-16 09:00N 69°41' E 018°60'0 0.1
2017-Aug-16 08:28N 69°41' E 018°60'0 0.0
2017-Aug-16 07:58N 69°41' E 018°60'0 0.0
2017-Aug-16 07:28N 69°41' E 018°60'0 0.0
2017-Aug-16 06:58N 69°41' E 018°60'0 0.0
2017-Aug-16 06:28N 69°41' E 018°60'0 0.0
2017-Aug-16 05:58N 69°41' E 018°60'0 0.0
2017-Aug-16 05:28N 69°41' E 018°60'0 0.0
2017-Aug-16 04:58N 69°41' E 018°60'0 0.0
2017-Aug-16 04:28N 69°41' E 018°60'0 0.0
2017-Aug-16 03:58N 69°41' E 018°60'0 0.0
2017-Aug-16 03:28N 69°41' E 018°60'0 0.0
2017-Aug-16 02:58N 69°41' E 018°60'0 0.0
2017-Aug-16 02:28N 69°41' E 018°60'0 0.0
2017-Aug-16 01:58N 69°41' E 018°60'0 0.0
2017-Aug-16 01:28N 69°41' E 018°60'0 0.0
2017-Aug-16 00:58N 69°41' E 018°60'0 0.0
2017-Aug-16 00:28N 69°41' E 018°60'0 0.0
2017-Aug-15 23:58N 69°41' E 018°60'0 0.0
2017-Aug-15 23:28N 69°41' E 018°60'0 0.0
2017-Aug-15 22:58N 69°41' E 018°60'0 0.0
2017-Aug-15 22:28N 69°41' E 018°60'0 0.0
2017-Aug-15 21:58N 69°41' E 018°60'0 0.0
2017-Aug-15 21:28N 69°41' E 018°60'0 0.0
2017-Aug-15 20:58N 69°41' E 018°60'0 0.0
2017-Aug-15 20:28N 69°41' E 018°60'0 0.0
2017-Aug-15 19:58N 69°41' E 018°60'0 0.0
2017-Aug-15 19:28N 69°41' E 018°60'0 0.0
2017-Aug-15 18:58N 69°41' E 018°60'0 0.0
2017-Aug-15 18:28N 69°41' E 018°60'0 0.0
2017-Aug-15 17:58N 69°41' E 018°60'0 0.0
2017-Aug-15 17:28N 69°41' E 018°60'0 0.0
2017-Aug-15 16:58N 69°41' E 018°60'0 0.0
2017-Aug-15 16:28N 69°41' E 018°60'0 0.0
2017-Aug-15 15:58N 69°41' E 018°60'0 0.0
2017-Aug-15 15:28N 69°41' E 018°60'0 0.0
2017-Aug-15 14:58N 69°41' E 018°60'0 0.0
2017-Aug-15 14:22N 69°41' E 018°60'1 1.4
2017-Aug-15 14:00N 69°41' E 019°01'0 0.3
2017-Aug-15 13:30N 69°41' E 019°02'0 0.0
2017-Aug-15 13:00N 69°41' E 019°02'1 1.3
2017-Aug-15 12:28N 69°41' E 018°60'0 0.0
2017-Aug-15 11:58N 69°41' E 018°60'0 0.0
2017-Aug-15 11:28N 69°41' E 018°60'0 0.0
2017-Aug-15 10:58N 69°41' E 018°60'0 0.0
2017-Aug-15 10:28N 69°41' E 018°60'0 0.0
2017-Aug-15 09:58N 69°41' E 018°60'0 0.0
2017-Aug-15 09:28N 69°41' E 018°60'0 0.0
2017-Aug-15 08:58N 69°41' E 018°60'0 0.0
2017-Aug-15 08:28N 69°41' E 018°60'0 0.0
2017-Aug-15 08:00N 69°41' E 018°60'2 4.6
2017-Aug-15 07:30N 69°43' E 019°03'5 9.6
2017-Aug-15 07:00N 69°47' E 019°11'5 9.9
2017-Aug-15 06:30N 69°48' E 019°24'2 3.1
2017-Aug-15 05:59N 69°49' E 019°28'0 0.0
2017-Aug-15 05:26N 69°49' E 019°28'0 0.0
2017-Aug-15 04:59N 69°49' E 019°28'0 0.0
2017-Aug-15 04:29N 69°49' E 019°27'0 0.1
2017-Aug-15 03:59N 69°49' E 019°28'0 0.1
2017-Aug-15 03:29N 69°49' E 019°27'0 0.0
2017-Aug-15 02:59N 69°49' E 019°28'0 0.0
2017-Aug-15 02:29N 69°49' E 019°28'0 0.1
2017-Aug-15 01:59N 69°49' E 019°28'0 0.0
2017-Aug-15 01:29N 69°49' E 019°28'0 0.0
2017-Aug-15 00:59N 69°49' E 019°28'0 0.0
2017-Aug-15 00:29N 69°49' E 019°28'0 0.0
2017-Aug-14 23:59N 69°49' E 019°28'0 0.0
2017-Aug-14 23:29N 69°49' E 019°28'0 0.0
2017-Aug-14 22:59N 69°49' E 019°28'0 0.0
2017-Aug-14 22:29N 69°49' E 019°28'0 0.0
2017-Aug-14 21:59N 69°49' E 019°28'0 0.0
2017-Aug-14 21:29N 69°49' E 019°28'0 0.0
2017-Aug-14 21:00N 69°49' E 019°28'2 3.5
2017-Aug-14 20:30N 69°49' E 019°22'4 9.2
2017-Aug-14 20:01N 69°53' E 019°28'5 9.0
2017-Aug-14 19:30N 69°57' E 019°36'4 8.4
2017-Aug-14 18:59N 70°01' E 019°41'510.2
2017-Aug-14 18:30N 70°04' E 019°31'510.8
2017-Aug-14 18:00N 70°06' E 019°16'  
2017-Aug-11 04:08N 70°19' E 021°27'1 6.3
2017-Aug-11 04:00N 70°20' E 021°29'3 6.7
2017-Aug-11 03:30N 70°22' E 021°36'3 6.1
2017-Aug-11 03:00N 70°24' E 021°44'3 6.2
2017-Aug-11 02:30N 70°22' E 021°52'3 6.6
2017-Aug-11 02:00N 70°21' E 022°01'3 6.6
2017-Aug-11 01:30N 70°19' E 022°09'3 6.5
2017-Aug-11 01:00N 70°18' E 022°18'3 6.8
2017-Aug-11 00:30N 70°16' E 022°27'4 7.5
2017-Aug-11 00:00N 70°15' E 022°37'4 7.6
2017-Aug-10 23:30N 70°14' E 022°48'4 7.3
2017-Aug-10 22:59N 70°13' E 022°59'3 6.6
2017-Aug-10 22:30N 70°14' E 023°08'3 6.4
2017-Aug-10 22:00N 70°16' E 023°16'4 7.0
2017-Aug-10 21:30N 70°19' E 023°23'2 4.8
2017-Aug-10 20:59N 70°21' E 023°27'3 7.0
2017-Aug-10 20:30N 70°24' E 023°34'4 7.3
2017-Aug-10 20:00N 70°26' E 023°40'3 6.6
2017-Aug-10 19:30N 70°29' E 023°46'2 4.5
2017-Aug-10 19:00N 70°30' E 023°52'511.1
2017-Aug-10 18:30N 70°34' E 024°05'5 9.9
2017-Aug-10 18:00N 70°38' E 024°09'510.5
2017-Aug-10 17:30N 70°44' E 024°09'510.2
2017-Aug-10 17:00N 70°49' E 024°09'5 9.9
2017-Aug-10 16:30N 70°53' E 024°19'5 9.4
2017-Aug-10 16:00N 70°57' E 024°24'5 9.7
2017-Aug-10 15:30N 71°01' E 024°30'4 8.3
2017-Aug-10 15:00N 71°01' E 024°43'2 3.5
2017-Aug-10 14:29N 71°00' E 024°48'1010.0
2017-Aug-10 13:30N 70°59' E 025°18'4 8.6
2017-Aug-10 12:59N 70°57' E 025°29'510.1
2017-Aug-10 12:30N 70°56' E 025°44'611.8
2017-Aug-10 12:00N 70°55' E 026°02'1 1.7
2017-Aug-10 11:30N 70°56' E 025°60'1 1.2
2017-Aug-10 11:00N 70°56' E 025°59'3 5.4
2017-Aug-10 10:30N 70°59' E 025°57'0 0.7
2017-Aug-10 09:58N 70°59' E 025°58'0 0.0
2017-Aug-10 09:28N 70°59' E 025°58'0 0.0
2017-Aug-10 08:58N 70°59' E 025°58'0 0.0
2017-Aug-10 08:28N 70°59' E 025°58'0 0.0
2017-Aug-10 07:58N 70°59' E 025°58'0 0.0
2017-Aug-10 07:28N 70°59' E 025°58'0 0.0
2017-Aug-10 06:58N 70°59' E 025°58'0 0.0
2017-Aug-10 06:28N 70°59' E 025°58'0 0.0
2017-Aug-10 05:58N 70°59' E 025°58'0 0.0
2017-Aug-10 05:28N 70°59' E 025°58'0 0.0
2017-Aug-10 04:58N 70°59' E 025°58'0 0.0
2017-Aug-10 04:28N 70°59' E 025°58'0 0.0
2017-Aug-10 03:58N 70°59' E 025°58'0 0.0
2017-Aug-10 03:28N 70°59' E 025°58'0 0.0
2017-Aug-10 02:58N 70°59' E 025°58'0 0.0
2017-Aug-10 02:28N 70°59' E 025°58'0 0.0
2017-Aug-10 01:58N 70°59' E 025°58'0 0.0
2017-Aug-10 01:28N 70°59' E 025°58'0 0.0
2017-Aug-10 00:58N 70°59' E 025°58'0 0.0
2017-Aug-10 00:28N 70°59' E 025°58'0 0.0
2017-Aug-09 23:58N 70°59' E 025°58'0 0.0
2017-Aug-09 23:28N 70°59' E 025°58'0 0.0
2017-Aug-09 22:58N 70°59' E 025°58'0 0.0
2017-Aug-09 22:28N 70°59' E 025°58'0 0.0
2017-Aug-09 21:58N 70°59' E 025°58'0 0.0
2017-Aug-09 21:30N 70°59' E 025°58'3 6.0
2017-Aug-09 21:00N 70°59' E 026°07'510.7
2017-Aug-09 20:30N 71°04' E 026°16'612.2
2017-Aug-09 20:00N 71°08' E 026°05'612.8
2017-Aug-09 19:30N 71°11' E 025°47'612.0
2017-Aug-09 19:00N 71°10' E 025°29'611.9
2017-Aug-09 18:30N 71°05' E 025°41'1 2.2
2017-Aug-09 18:00N 71°05' E 025°44'0 0.0
2017-Aug-09 17:30N 71°05' E 025°44'0 0.0
2017-Aug-09 17:00N 71°05' E 025°44'0 0.0
2017-Aug-09 16:30N 71°05' E 025°44'0 0.0
2017-Aug-09 16:00N 71°05' E 025°44'0 0.0
2017-Aug-09 15:30N 71°05' E 025°44'0 0.0
2017-Aug-09 15:00N 71°05' E 025°44'0 0.0
2017-Aug-09 14:30N 71°05' E 025°44'0 0.3
2017-Aug-09 14:00N 71°05' E 025°43'0 0.2
2017-Aug-09 13:30N 71°04' E 025°44'0 0.0
2017-Aug-09 13:00N 71°04' E 025°44'0 0.0
2017-Aug-09 12:30N 71°04' E 025°44'0 0.0
2017-Aug-09 12:00N 71°04' E 025°44'0 0.1
2017-Aug-09 11:30N 71°05' E 025°43'1 1.1
2017-Aug-09 11:00N 71°05' E 025°42'2 3.5
2017-Aug-09 10:30N 71°06' E 025°40'0 0.0
2017-Aug-09 10:00N 71°06' E 025°40'0 0.0
2017-Aug-09 09:30N 71°06' E 025°40'0 0.0
2017-Aug-09 09:00N 71°06' E 025°40'0 0.0
2017-Aug-09 08:30N 71°06' E 025°40'1 2.6
2017-Aug-09 08:00N 71°05' E 025°42'1 2.0
2017-Aug-09 07:30N 71°05' E 025°43'1 1.3
2017-Aug-09 07:00N 71°05' E 025°42'6 0.3
2017-Aug-08 06:40N 71°07' E 025°24'1 3.1
2017-Aug-08 06:30N 71°07' E 025°25'0 0.0
2017-Aug-08 05:59N 71°07' E 025°25'0 0.0
2017-Aug-08 05:29N 71°07' E 025°25'0 0.1
2017-Aug-08 04:59N 71°07' E 025°25'0 0.0
2017-Aug-08 04:29N 71°07' E 025°25'0 0.0
2017-Aug-08 03:59N 71°07' E 025°25'0 0.0
2017-Aug-08 03:29N 71°07' E 025°25'0 0.0
2017-Aug-08 02:59N 71°07' E 025°25'0 0.0
2017-Aug-08 02:29N 71°07' E 025°25'0 0.1
2017-Aug-08 01:59N 71°07' E 025°25'0 0.1
2017-Aug-08 01:29N 71°07' E 025°25'0 0.0
2017-Aug-08 00:59N 71°07' E 025°25'0 0.0
2017-Aug-08 00:29N 71°07' E 025°25'0 0.0
2017-Aug-07 23:59N 71°07' E 025°25'0 0.1
2017-Aug-07 23:29N 71°07' E 025°25'0 0.0
2017-Aug-07 22:59N 71°07' E 025°25'0 0.0
2017-Aug-07 22:29N 71°07' E 025°25'0 0.0
2017-Aug-07 21:59N 71°07' E 025°25'0 0.0
2017-Aug-07 21:29N 71°07' E 025°25'0 0.0
2017-Aug-07 20:59N 71°07' E 025°25'0 0.0
2017-Aug-07 20:29N 71°07' E 025°25'21 6.7
2017-Aug-07 17:19N 71°07' E 024°20'1 2.6
2017-Aug-07 17:00N 71°07' E 024°18'0 0.3
2017-Aug-07 16:30N 71°07' E 024°19'0 0.3
2017-Aug-07 16:00N 71°07' E 024°19'0 0.8
2017-Aug-07 15:30N 71°08' E 024°20'3 6.8
2017-Aug-07 15:00N 71°08' E 024°09'611.4
2017-Aug-07 14:30N 71°05' E 023°53'611.5
2017-Aug-07 14:00N 71°01' E 023°42'611.3
2017-Aug-07 13:30N 70°55' E 023°38'510.7
2017-Aug-07 13:00N 70°50' E 023°36'510.9
2017-Aug-07 12:30N 70°45' E 023°34'510.0
2017-Aug-07 12:00N 70°40' E 023°37'  

Dump ship's entire track history